createdAt,value
2022-09-15T00:01:34.455Z,98369.56
2022-09-15T00:04:03.829Z,98362.72
2022-09-15T00:06:32.559Z,98365.47
2022-09-15T00:09:01.165Z,98366.50
2022-09-15T00:11:31.599Z,98373.25
2022-09-15T00:14:01.971Z,98367.16
2022-09-15T00:16:32.968Z,98376.66
2022-09-15T00:19:01.969Z,98370.94
2022-09-15T00:21:32.628Z,98364.78
2022-09-15T00:24:02.422Z,98371.97
2022-09-15T00:26:32.662Z,98362.97
2022-09-15T00:29:01.746Z,98366.59
2022-09-15T00:31:33.162Z,98370.84
2022-09-15T00:34:03.761Z,98368.53
2022-09-15T00:36:32.243Z,98368.03
2022-09-15T00:39:00.687Z,98368.72
2022-09-15T00:41:29.523Z,98374.97
2022-09-15T00:44:00.100Z,98365.38
2022-09-15T00:46:32.660Z,98374.38
2022-09-15T00:49:04.728Z,98374.63
2022-09-15T00:51:41.422Z,98387.97
2022-09-15T00:54:15.885Z,98384.38
2022-09-15T00:56:47.073Z,98383.88
2022-09-15T00:59:20.171Z,98388.13
2022-09-15T01:01:56.199Z,98385.41
2022-09-15T01:04:25.105Z,98379.84
2022-09-15T01:06:59.037Z,98377.34
2022-09-15T01:09:30.567Z,98370.53
2022-09-15T01:11:59.257Z,98380.25
2022-09-15T01:14:27.700Z,98374.88
2022-09-15T01:17:06.921Z,98369.00
2022-09-15T01:20:11.450Z,98372.56
2022-09-15T01:22:55.265Z,98368.81
2022-09-15T01:25:41.387Z,98366.41
2022-09-15T01:28:46.885Z,98376.19
2022-09-15T01:31:22.735Z,98380.44
2022-09-15T01:33:58.094Z,98380.78
2022-09-15T01:36:33.622Z,98380.28
2022-09-15T01:39:08.780Z,98384.97
2022-09-15T01:41:49.712Z,98377.19
2022-09-15T01:44:23.981Z,98374.78
2022-09-15T01:46:57.734Z,98374.78
2022-09-15T01:49:29.905Z,98377.69
2022-09-15T01:51:58.295Z,98382.41
2022-09-15T01:54:32.476Z,98375.97
2022-09-15T01:57:01.511Z,98384.47
2022-09-15T01:59:29.974Z,98384.06
2022-09-15T02:02:05.008Z,98385.28
2022-09-15T02:04:39.709Z,98382.66
2022-09-15T02:07:15.128Z,98384.38
2022-09-15T02:09:49.210Z,98379.69
2022-09-15T02:12:21.826Z,98378.44
2022-09-15T02:14:58.365Z,98383.22
2022-09-15T02:17:32.593Z,98383.69
2022-09-15T02:20:09.035Z,98379.38
2022-09-15T02:22:40.824Z,98381.09
2022-09-15T02:25:13.949Z,98380.41
2022-09-15T02:27:48.167Z,98379.81
2022-09-15T02:30:19.601Z,98393.91
2022-09-15T02:32:54.424Z,98394.66
2022-09-15T02:35:24.896Z,98386.66
2022-09-15T02:37:53.981Z,98390.16
2022-09-15T02:40:23.458Z,98376.97
2022-09-15T02:42:56.605Z,98386.91
2022-09-15T02:45:25.757Z,98383.72
2022-09-15T02:47:56.001Z,98372.63
2022-09-15T02:50:26.326Z,98385.28
2022-09-15T02:52:55.198Z,98380.97
2022-09-15T02:55:24.837Z,98390.16
2022-09-15T02:57:53.131Z,98378.78
2022-09-15T03:00:21.512Z,98377.06
2022-09-15T03:02:51.537Z,98378.75
2022-09-15T03:05:22.919Z,98384.56
2022-09-15T03:07:52.114Z,98377.06
2022-09-15T03:10:21.956Z,98382.69
2022-09-15T03:12:52.400Z,98379.56
2022-09-15T03:15:23.201Z,98382.50
2022-09-15T03:17:52.677Z,98380.44
2022-09-15T03:20:24.651Z,98374.03
2022-09-15T03:22:52.956Z,98383.81
2022-09-15T03:25:21.870Z,98391.16
2022-09-15T03:27:50.312Z,98387.13
2022-09-15T03:30:19.048Z,98390.47
2022-09-15T03:32:48.625Z,98394.03
2022-09-15T03:35:17.069Z,98392.84
2022-09-15T03:37:46.820Z,98395.59
2022-09-15T03:40:15.256Z,98391.59
2022-09-15T03:42:43.605Z,98390.97
2022-09-15T03:45:11.960Z,98388.78
2022-09-15T03:47:40.225Z,98389.06
2022-09-15T03:50:09.009Z,98394.28
2022-09-15T03:52:37.357Z,98403.41
2022-09-15T03:55:07.836Z,98411.38
2022-09-15T03:57:36.148Z,98401.78
2022-09-15T04:00:06.329Z,98402.88
2022-09-15T04:02:34.964Z,98400.97
2022-09-15T04:05:03.601Z,98398.25
2022-09-15T04:07:31.920Z,98403.41
2022-09-15T04:10:00.893Z,98399.03
2022-09-15T04:12:32.401Z,98398.19
2022-09-15T04:15:00.690Z,98385.56
2022-09-15T04:17:29.451Z,98390.72
2022-09-15T04:19:57.799Z,98390.84
2022-09-15T04:22:26.222Z,98394.13
2022-09-15T04:24:54.560Z,98385.84
2022-09-15T04:27:23.147Z,98387.78
2022-09-15T04:29:53.774Z,98393.91
2022-09-15T04:32:29.686Z,98388.47
2022-09-15T04:34:57.980Z,98392.06
2022-09-15T04:37:26.330Z,98385.19
2022-09-15T04:39:54.767Z,98387.00
2022-09-15T04:42:23.902Z,98386.19
2022-09-15T04:44:53.772Z,98382.78
2022-09-15T04:47:22.154Z,98384.03
2022-09-15T04:49:50.646Z,98382.06
2022-09-15T04:52:19.020Z,98387.34
2022-09-15T04:54:47.455Z,98383.53
2022-09-15T04:57:16.758Z,98389.47
2022-09-15T04:59:45.111Z,98386.66
2022-09-15T05:02:14.897Z,98385.19
2022-09-15T05:04:43.873Z,98392.22
2022-09-15T05:07:12.304Z,98390.13
2022-09-15T05:09:40.663Z,98383.28
2022-09-15T05:12:08.985Z,98393.38
2022-09-15T05:14:37.545Z,98387.03
2022-09-15T05:17:06.009Z,98394.09
2022-09-15T05:19:35.843Z,98405.69
2022-09-15T05:22:05.856Z,98401.09
2022-09-15T05:24:34.672Z,98403.66
2022-09-15T05:27:02.983Z,98402.59
2022-09-15T05:29:31.318Z,98394.50
2022-09-15T05:31:59.633Z,98403.13
2022-09-15T05:34:27.949Z,98413.31
2022-09-15T05:36:57.941Z,98413.31
2022-09-15T05:39:26.285Z,98412.56
2022-09-15T05:41:55.186Z,98422.69
2022-09-15T05:44:23.679Z,98422.28
2022-09-15T05:46:52.289Z,98423.00
2022-09-15T05:49:20.717Z,98415.91
2022-09-15T05:51:51.195Z,98422.28
2022-09-15T05:54:21.281Z,98427.34
2022-09-15T05:56:49.671Z,98429.69
2022-09-15T05:59:18.231Z,98434.28
2022-09-15T06:01:46.601Z,98437.41
2022-09-15T06:04:14.980Z,98437.28
2022-09-15T06:06:43.362Z,98437.41
2022-09-15T06:09:11.784Z,98440.94
2022-09-15T06:11:41.460Z,98446.81
2022-09-15T06:14:09.767Z,98443.66
2022-09-15T06:16:39.079Z,98443.25
2022-09-15T06:19:07.546Z,98442.91
2022-09-15T06:21:35.855Z,98446.44
2022-09-15T06:24:06.812Z,98449.94
2022-09-15T06:26:35.349Z,98445.75
2022-09-15T06:29:06.282Z,98445.75
2022-09-15T06:31:35.645Z,98450.38
2022-09-15T06:34:05.251Z,98450.44
2022-09-15T06:36:33.879Z,98447.13
2022-09-15T06:39:02.761Z,98447.78
2022-09-15T06:41:52.538Z,98456.59
2022-09-15T06:44:21.278Z,98456.47
2022-09-15T06:46:50.272Z,98461.56
2022-09-15T06:49:19.095Z,98468.03
2022-09-15T06:51:47.416Z,98459.22
2022-09-15T06:54:16.664Z,98460.63
2022-09-15T06:56:45.745Z,98470.22
2022-09-15T06:59:15.180Z,98477.50
2022-09-15T07:01:44.925Z,98476.09
2022-09-15T07:04:13.297Z,98472.38
2022-09-15T07:06:41.563Z,98471.25
2022-09-15T07:09:11.936Z,98478.31
2022-09-15T07:11:40.697Z,98483.09
2022-09-15T07:14:09.262Z,98482.91
2022-09-15T07:16:37.974Z,98482.91
2022-09-15T07:19:07.733Z,98483.16
2022-09-15T07:21:36.062Z,98477.59
2022-09-15T07:24:07.247Z,98487.34
2022-09-15T07:26:36.225Z,98487.44
2022-09-15T07:29:06.681Z,98483.25
2022-09-15T07:31:37.128Z,98488.78
2022-09-15T07:34:08.425Z,98485.56
2022-09-15T07:36:36.800Z,98489.00
2022-09-15T07:39:06.013Z,98499.00
2022-09-15T07:41:34.940Z,98493.88
2022-09-15T07:44:03.829Z,98506.19
2022-09-15T07:46:33.564Z,98514.06
2022-09-15T07:49:03.142Z,98513.25
2022-09-15T07:51:32.996Z,98510.34
2022-09-15T07:54:01.636Z,98510.66
2022-09-15T07:56:30.065Z,98516.06
2022-09-15T07:58:58.743Z,98515.09
2022-09-15T08:01:27.177Z,98510.56
2022-09-15T08:03:56.037Z,98509.56
2022-09-15T08:06:26.725Z,98516.66
2022-09-15T08:09:00.647Z,98505.19
2022-09-15T08:11:30.034Z,98513.84
2022-09-15T08:14:02.025Z,98517.56
2022-09-15T08:16:30.473Z,98516.66
2022-09-15T08:18:59.852Z,98526.19
2022-09-15T08:21:29.040Z,98528.66
2022-09-15T08:24:01.037Z,98528.56
2022-09-15T08:26:40.534Z,98536.50
2022-09-15T08:29:09.130Z,98532.81
2022-09-15T08:31:37.473Z,98536.72
2022-09-15T08:34:06.896Z,98545.69
2022-09-15T08:36:50.464Z,98552.50
2022-09-15T08:39:20.309Z,98550.03
2022-09-15T08:41:51.530Z,98549.81
2022-09-15T08:44:34.156Z,98549.41
2022-09-15T08:47:13.859Z,98550.06
2022-09-15T08:49:52.256Z,98555.34
2022-09-15T08:52:32.494Z,98567.53
2022-09-15T08:55:12.544Z,98574.78
2022-09-15T08:57:41.205Z,98577.19
2022-09-15T09:00:19.615Z,98585.94
2022-09-15T09:03:09.328Z,98587.84
2022-09-15T09:05:57.721Z,98591.44
2022-09-15T09:09:00.108Z,98589.56
2022-09-15T09:11:46.931Z,98592.16
2022-09-15T09:14:24.509Z,98594.84
2022-09-15T09:17:11.591Z,98592.78
2022-09-15T09:19:58.844Z,98587.59
2022-09-15T09:22:31.827Z,98593.19
2022-09-15T09:25:21.146Z,98587.13
2022-09-15T09:27:56.254Z,98586.13
2022-09-15T09:30:26.560Z,98584.56
2022-09-15T09:33:10.586Z,98592.84
2022-09-15T09:35:43.972Z,98591.50
2022-09-15T09:38:15.605Z,98591.09
2022-09-15T09:40:49.332Z,98585.81
2022-09-15T09:43:19.445Z,98582.75
2022-09-15T09:45:47.824Z,98576.25
2022-09-15T09:48:20.852Z,98580.50
2022-09-15T09:50:50.688Z,98588.69
2022-09-15T09:53:32.666Z,98582.59
2022-09-15T09:56:17.947Z,98586.44
2022-09-15T09:58:53.159Z,98591.63
2022-09-15T10:01:28.038Z,98591.41
2022-09-15T10:04:18.039Z,98603.66
2022-09-15T10:06:54.257Z,98595.88
2022-09-15T10:09:24.902Z,98596.50
2022-09-15T10:11:56.010Z,98593.09
2022-09-15T10:14:33.151Z,98595.78
2022-09-15T10:17:09.832Z,98601.59
2022-09-15T10:19:46.045Z,98589.09
2022-09-15T10:22:32.548Z,98592.69
2022-09-15T10:25:44.268Z,98587.72
2022-09-15T10:28:27.011Z,98584.81
2022-09-15T10:31:05.994Z,98575.31
2022-09-15T10:33:35.998Z,98578.56
2022-09-15T10:36:15.661Z,98576.13
2022-09-15T10:38:46.112Z,98580.13
2022-09-15T10:41:26.898Z,98574.28
2022-09-15T10:44:18.593Z,98573.16
2022-09-15T10:46:56.275Z,98574.03
2022-09-15T10:49:54.919Z,98572.94
2022-09-15T10:52:35.432Z,98565.38
2022-09-15T10:55:48.863Z,98566.81
2022-09-15T10:58:45.852Z,98571.56
2022-09-15T11:01:33.261Z,98584.53
2022-09-15T11:04:32.289Z,98573.88
2022-09-15T11:07:09.536Z,98582.31
2022-09-15T11:09:54.169Z,98582.84
2022-09-15T11:12:38.534Z,98582.03
2022-09-15T11:15:30.643Z,98588.91
2022-09-15T11:18:17.161Z,98584.47
2022-09-15T11:21:11.859Z,98581.88
2022-09-15T11:23:47.861Z,98579.59
2022-09-15T11:26:21.629Z,98579.19
2022-09-15T11:29:01.221Z,98574.81
2022-09-15T11:31:39.249Z,98571.81
2022-09-15T11:34:17.365Z,98583.47
2022-09-15T11:37:04.025Z,98583.91
2022-09-15T11:39:39.544Z,98579.31
2022-09-15T11:42:11.183Z,98573.88
2022-09-15T11:44:42.565Z,98580.91
2022-09-15T11:47:23.191Z,98569.94
2022-09-15T11:49:56.905Z,98583.16
2022-09-15T11:52:46.507Z,98590.34
2022-09-15T11:55:30.457Z,98587.91
2022-09-15T11:58:17.328Z,98601.25
2022-09-15T12:00:55.516Z,98593.28
2022-09-15T12:03:30.141Z,98594.44
2022-09-15T12:06:06.115Z,98592.44
2022-09-15T12:08:45.121Z,98598.94
2022-09-15T12:11:22.265Z,98589.09
2022-09-15T12:13:52.070Z,98587.28
2022-09-15T12:16:21.486Z,98592.47
2022-09-15T12:18:54.106Z,98584.28
2022-09-15T12:21:33.926Z,98586.19
2022-09-15T12:24:14.688Z,98586.28
2022-09-15T12:26:46.360Z,98594.38
2022-09-15T12:29:41.836Z,98587.41
2022-09-15T12:32:26.277Z,98591.34
2022-09-15T12:35:03.518Z,98588.81
2022-09-15T12:37:39.675Z,98589.75
2022-09-15T12:40:27.714Z,98592.53
2022-09-15T12:42:56.672Z,98596.59
2022-09-15T12:45:28.630Z,98605.97
2022-09-15T12:48:02.458Z,98601.97
2022-09-15T12:50:33.826Z,98601.25
2022-09-15T12:53:04.881Z,98609.94
2022-09-15T12:55:37.393Z,98605.56
2022-09-15T12:58:09.590Z,98610.00
2022-09-15T13:00:54.738Z,98611.63
2022-09-15T13:03:28.196Z,98611.97
2022-09-15T13:06:21.424Z,98610.50
2022-09-15T13:08:52.276Z,98607.22
2022-09-15T13:11:39.132Z,98603.69
2022-09-15T13:14:14.946Z,98602.09
2022-09-15T13:16:56.598Z,98606.50
2022-09-15T13:19:30.966Z,98604.41
2022-09-15T13:22:04.514Z,98609.00
2022-09-15T13:24:49.618Z,98603.28
2022-09-15T13:27:26.592Z,98600.91
2022-09-15T13:30:03.784Z,98601.44
2022-09-15T13:32:43.511Z,98610.69
2022-09-15T13:35:39.900Z,98609.78
2022-09-15T13:38:35.867Z,98609.06
2022-09-15T13:41:25.769Z,98594.72
2022-09-15T13:44:36.101Z,98601.38
2022-09-15T13:47:21.717Z,98587.38
2022-09-15T13:49:54.823Z,98605.78
2022-09-15T13:52:40.117Z,98604.75
2022-09-15T13:55:34.142Z,98603.19
2022-09-15T14:01:04.701Z,98616.59
2022-09-15T14:03:42.196Z,98619.34
2022-09-15T14:06:15.711Z,98619.09
2022-09-15T14:08:47.006Z,98625.34
2022-09-15T14:11:18.015Z,98617.00
2022-09-15T14:13:48.574Z,98622.94
2022-09-15T14:16:24.589Z,98623.25
2022-09-15T14:19:09.096Z,98628.84
2022-09-15T14:21:48.926Z,98632.09
2022-09-15T14:24:21.920Z,98638.22
2022-09-15T14:27:03.274Z,98643.25
2022-09-15T14:29:31.694Z,98643.34
2022-09-15T14:32:03.811Z,98645.91
2022-09-15T14:34:38.745Z,98645.91
2022-09-15T14:37:21.462Z,98644.69
2022-09-15T14:39:50.819Z,98645.53
2022-09-15T14:42:22.851Z,98645.53
2022-09-15T14:47:43.336Z,98656.56
2022-09-15T14:50:16.873Z,98658.25
2022-09-15T14:53:01.917Z,98663.03
2022-09-15T14:55:34.219Z,98659.06
2022-09-15T14:58:06.045Z,98662.94
2022-09-15T15:00:41.630Z,98660.47
2022-09-15T15:03:22.878Z,98656.59
2022-09-15T15:06:02.806Z,98655.81
2022-09-15T15:09:03.320Z,98655.06
2022-09-15T15:11:34.170Z,98659.53
2022-09-15T15:14:07.259Z,98661.34
2022-09-15T15:16:35.910Z,98659.72
2022-09-15T15:19:04.382Z,98651.16
2022-09-15T15:21:45.096Z,98646.31
2022-09-15T15:24:25.620Z,98652.09
2022-09-15T15:26:54.144Z,98644.78
2022-09-15T15:29:44.078Z,98642.69
2022-09-15T15:32:20.083Z,98639.31
2022-09-15T15:34:53.669Z,98637.06
2022-09-15T15:37:28.473Z,98641.69
2022-09-15T15:40:02.113Z,98641.91
2022-09-15T15:42:31.021Z,98636.44
2022-09-15T15:45:01.617Z,98641.88
2022-09-15T15:47:32.577Z,98647.19
2022-09-15T15:50:13.382Z,98654.94
2022-09-15T15:52:47.125Z,98654.75
2022-09-15T15:55:16.450Z,98660.81
2022-09-15T15:57:45.585Z,98653.91
2022-09-15T16:00:23.880Z,98653.72
2022-09-15T16:02:53.200Z,98646.88
2022-09-15T16:05:24.633Z,98656.00
2022-09-15T16:07:56.639Z,98655.13
2022-09-15T16:10:36.758Z,98658.66
2022-09-15T16:13:05.129Z,98661.16
2022-09-15T16:15:33.863Z,98656.75
2022-09-15T16:18:02.260Z,98660.66
2022-09-15T16:20:33.491Z,98653.47
2022-09-15T16:23:03.477Z,98659.72
2022-09-15T16:25:37.558Z,98656.97
2022-09-15T16:28:06.133Z,98654.84
2022-09-15T16:30:42.690Z,98649.91
2022-09-15T16:33:14.601Z,98655.59
2022-09-15T16:35:51.056Z,98649.16
2022-09-15T16:38:21.555Z,98651.31
2022-09-15T16:40:51.162Z,98645.91
2022-09-15T16:43:21.765Z,98653.22
2022-09-15T16:45:50.727Z,98658.84
2022-09-15T16:48:19.660Z,98656.38
2022-09-15T16:51:16.910Z,98666.94
2022-09-15T16:53:40.677Z,98663.88
2022-09-15T16:56:12.440Z,98663.25
2022-09-15T16:58:41.188Z,98663.72
2022-09-15T17:01:18.640Z,98666.66
2022-09-15T17:03:47.250Z,98663.44
2022-09-15T17:06:18.608Z,98673.31
2022-09-15T17:08:48.319Z,98668.44
2022-09-15T17:11:20.518Z,98669.69
2022-09-15T17:13:53.168Z,98673.09
2022-09-15T17:16:21.903Z,98678.31
2022-09-15T17:18:50.435Z,98667.78
2022-09-15T17:21:22.413Z,98676.13
2022-09-15T17:23:52.544Z,98680.81
2022-09-15T17:26:28.812Z,98679.44
2022-09-15T17:28:58.939Z,98672.59
2022-09-15T17:31:28.374Z,98676.66
2022-09-15T17:34:02.128Z,98673.16
2022-09-15T17:36:30.486Z,98676.34
2022-09-15T17:39:00.299Z,98673.97
2022-09-15T17:41:28.729Z,98673.00
2022-09-15T17:43:57.101Z,98680.41
2022-09-15T17:46:25.530Z,98673.56
2022-09-15T17:48:53.898Z,98671.00
2022-09-15T17:51:22.525Z,98674.41
2022-09-15T17:53:50.896Z,98671.94
2022-09-15T17:56:20.892Z,98681.03
2022-09-15T17:58:49.337Z,98684.22
2022-09-15T18:01:17.727Z,98685.75
2022-09-15T18:03:46.750Z,98689.72
2022-09-15T18:06:15.113Z,98693.56
2022-09-15T18:08:43.605Z,98701.63
2022-09-15T18:11:14.934Z,98705.75
2022-09-15T18:13:44.741Z,98704.69
2022-09-15T18:16:14.880Z,98702.22
2022-09-15T18:18:43.649Z,98709.44
2022-09-15T18:21:24.526Z,98707.13
2022-09-15T18:23:52.821Z,98713.22
2022-09-15T18:26:23.869Z,98716.44
2022-09-15T18:28:56.838Z,98709.00
2022-09-15T18:31:25.752Z,98726.16
2022-09-15T18:33:54.289Z,98726.59
2022-09-15T18:36:22.880Z,98725.13
2022-09-15T18:38:51.248Z,98728.72
2022-09-15T18:41:19.594Z,98729.66
2022-09-15T18:43:48.980Z,98738.31
2022-09-15T18:46:18.881Z,98736.72
2022-09-15T18:48:47.918Z,98729.75
2022-09-15T18:51:23.982Z,98729.44
2022-09-15T18:53:54.420Z,98728.97
2022-09-15T18:56:23.018Z,98730.44
2022-09-15T18:58:53.398Z,98742.19
2022-09-15T19:01:24.054Z,98744.69
2022-09-15T19:03:52.519Z,98753.31
2022-09-15T19:06:20.807Z,98742.59
2022-09-15T19:08:49.293Z,98746.09
2022-09-15T19:11:17.989Z,98740.78
2022-09-15T19:13:46.457Z,98744.38
2022-09-15T19:16:14.894Z,98741.88
2022-09-15T19:18:46.142Z,98744.38
2022-09-15T19:21:14.510Z,98734.00
2022-09-15T19:23:42.835Z,98740.84
2022-09-15T19:26:13.594Z,98745.84
2022-09-15T19:28:41.998Z,98747.88
2022-09-15T19:31:10.766Z,98742.63
2022-09-15T19:33:39.828Z,98754.50
2022-09-15T19:36:27.562Z,98755.81
2022-09-15T19:38:57.389Z,98753.72
2022-09-15T19:41:25.699Z,98750.91
2022-09-15T19:43:54.457Z,98744.75
2022-09-15T19:46:26.134Z,98753.66
2022-09-15T19:48:55.086Z,98752.28
2022-09-15T19:51:25.453Z,98754.53
2022-09-15T19:53:57.904Z,98747.78
2022-09-15T19:56:27.779Z,98757.31
2022-09-15T19:58:57.702Z,98759.06
2022-09-15T20:01:27.496Z,98762.22
2022-09-15T20:03:57.610Z,98768.13
2022-09-15T20:06:31.677Z,98766.53
2022-09-15T20:09:00.737Z,98772.78
2022-09-15T20:11:31.140Z,98771.22
2022-09-15T20:14:00.650Z,98780.13
2022-09-15T20:16:29.634Z,98772.22
2022-09-15T20:18:58.738Z,98772.06
2022-09-15T20:21:50.194Z,98776.56
2022-09-15T20:24:20.566Z,98775.75
2022-09-15T20:26:49.196Z,98775.69
2022-09-15T20:29:17.934Z,98772.19
2022-09-15T20:31:46.625Z,98773.09
2022-09-15T20:34:15.538Z,98775.41
2022-09-15T20:36:45.611Z,98782.19
2022-09-15T20:39:15.787Z,98781.00
2022-09-15T20:41:45.620Z,98778.41
2022-09-15T20:44:14.708Z,98783.19
2022-09-15T20:46:43.705Z,98780.75
2022-09-15T20:49:12.346Z,98774.91
2022-09-15T20:51:40.756Z,98784.50
2022-09-15T20:54:11.588Z,98786.25
2022-09-15T20:56:39.962Z,98781.78
2022-09-15T20:59:10.485Z,98787.88
2022-09-15T21:01:40.264Z,98789.66
2022-09-15T21:04:09.971Z,98787.41
2022-09-15T21:06:39.235Z,98783.66
2022-09-15T21:09:07.863Z,98781.25
2022-09-15T21:11:39.672Z,98781.31
2022-09-15T21:14:08.019Z,98789.13
2022-09-15T21:16:36.361Z,98792.56
2022-09-15T21:19:05.089Z,98789.25
2022-09-15T21:21:33.975Z,98799.09
2022-09-15T21:24:04.851Z,98799.19
2022-09-15T21:26:35.171Z,98796.84
2022-09-15T21:29:04.840Z,98801.66
2022-09-15T21:31:34.108Z,98802.75
2022-09-15T21:34:02.471Z,98809.25
2022-09-15T21:36:32.534Z,98810.22
2022-09-15T21:39:02.626Z,98797.75
2022-09-15T21:41:31.280Z,98796.06
2022-09-15T21:44:00.917Z,98796.66
2022-09-15T21:46:32.173Z,98803.47
2022-09-15T21:49:01.447Z,98803.59
2022-09-15T21:51:31.136Z,98805.56
2022-09-15T21:54:00.601Z,98806.34
2022-09-15T21:56:30.792Z,98798.53
2022-09-15T21:58:59.188Z,98805.56
2022-09-15T22:01:30.556Z,98805.56
2022-09-15T22:04:00.728Z,98811.66
2022-09-15T22:06:31.724Z,98803.16
2022-09-15T22:09:00.832Z,98797.06
2022-09-15T22:11:29.753Z,98801.59
2022-09-15T22:13:58.217Z,98804.53
2022-09-15T22:16:26.739Z,98799.16
2022-09-15T22:18:56.998Z,98804.13
2022-09-15T22:21:27.277Z,98814.16
2022-09-15T22:23:57.573Z,98805.56
2022-09-15T22:26:28.693Z,98806.97
2022-09-15T22:28:57.602Z,98814.94
2022-09-15T22:31:27.162Z,98815.81
2022-09-15T22:33:57.637Z,98814.16
2022-09-15T22:36:29.537Z,98808.94
2022-09-15T22:39:03.804Z,98815.81
2022-09-15T22:41:33.405Z,98809.50
2022-09-15T22:44:01.728Z,98800.91
2022-09-15T22:46:30.038Z,98810.03
2022-09-15T22:48:59.877Z,98812.66
2022-09-15T22:51:28.290Z,98810.03
2022-09-15T22:53:57.739Z,98810.31
2022-09-15T22:56:27.090Z,98805.00
2022-09-15T22:58:57.259Z,98806.66
2022-09-15T23:01:27.694Z,98802.31
2022-09-15T23:03:57.892Z,98801.75
2022-09-15T23:06:30.607Z,98800.22
2022-09-15T23:09:01.082Z,98803.38
2022-09-15T23:11:32.174Z,98789.22
2022-09-15T23:14:01.014Z,98788.72
2022-09-15T23:16:31.038Z,98801.97
2022-09-15T23:19:00.192Z,98808.28
2022-09-15T23:21:29.951Z,98797.97
2022-09-15T23:23:59.097Z,98791.94
2022-09-15T23:26:27.655Z,98791.25
2022-09-15T23:28:56.076Z,98793.38
2022-09-15T23:31:24.445Z,98794.19
2022-09-15T23:33:52.789Z,98802.53
2022-09-15T23:36:21.147Z,98792.03
2022-09-15T23:38:51.204Z,98795.38
2022-09-15T23:41:20.199Z,98792.16
2022-09-15T23:43:48.550Z,98788.50
2022-09-15T23:46:17.248Z,98798.75
2022-09-15T23:48:45.893Z,98786.56
2022-09-15T23:51:14.253Z,98792.59
2022-09-15T23:53:42.848Z,98791.81
2022-09-15T23:56:12.582Z,98788.22
2022-09-15T23:58:41.066Z,98792.03
